createdAt,value
2022-09-12T00:01:26.467Z,4.57
2022-09-12T00:03:54.926Z,5.20
2022-09-12T00:06:23.513Z,3.53
2022-09-12T00:08:51.415Z,3.83
2022-09-12T00:11:18.013Z,4.63
2022-09-12T00:13:44.577Z,3.77
2022-09-12T00:16:22.438Z,3.55
2022-09-12T00:18:49.486Z,4.90
2022-09-12T00:21:17.550Z,5.22
2022-09-12T00:23:44.393Z,4.18
2022-09-12T00:26:11.420Z,4.00
2022-09-12T00:28:39.202Z,4.35
2022-09-12T00:31:07.764Z,4.22
2022-09-12T00:33:35.354Z,4.15
2022-09-12T00:36:09.054Z,4.53
2022-09-12T00:38:38.560Z,4.03
2022-09-12T00:41:06.254Z,5.50
2022-09-12T00:43:35.597Z,4.43
2022-09-12T00:46:06.891Z,4.93
2022-09-12T00:48:44.595Z,4.95
2022-09-12T00:51:11.524Z,5.07
2022-09-12T00:53:40.231Z,4.50
2022-09-12T00:56:07.581Z,5.57
2022-09-12T00:58:41.750Z,6.25
2022-09-12T01:01:08.497Z,4.43
2022-09-12T01:03:35.198Z,4.77
2022-09-12T01:06:07.503Z,4.20
2022-09-12T01:08:37.379Z,4.07
2022-09-12T01:11:05.622Z,3.92
2022-09-12T01:13:34.832Z,4.97
2022-09-12T01:16:04.063Z,4.50
2022-09-12T01:19:04.206Z,4.50
2022-09-12T01:21:51.343Z,4.30
2022-09-12T01:24:17.890Z,4.18
2022-09-12T01:26:57.784Z,4.07
2022-09-12T01:29:27.390Z,4.43
2022-09-12T01:32:21.112Z,4.53
2022-09-12T01:34:54.661Z,4.10
2022-09-12T01:37:32.349Z,3.85
2022-09-12T01:40:16.729Z,3.97
2022-09-12T01:43:04.317Z,3.67
2022-09-12T01:45:36.383Z,6.75
2022-09-12T01:48:08.104Z,5.55
2022-09-12T01:50:40.375Z,3.50
2022-09-12T01:53:10.028Z,4.13
2022-09-12T01:55:47.055Z,4.60
2022-09-12T01:58:34.831Z,4.32
2022-09-12T02:01:12.584Z,3.97
2022-09-12T02:03:50.345Z,3.63
2022-09-12T02:06:23.874Z,3.97
2022-09-12T02:08:55.294Z,3.40
2022-09-12T02:11:22.280Z,3.90
2022-09-12T02:14:00.515Z,4.18
2022-09-12T02:16:46.639Z,3.55
2022-09-12T02:19:16.917Z,4.00
2022-09-12T02:21:48.664Z,3.43
2022-09-12T02:24:16.142Z,3.60
2022-09-12T02:26:56.139Z,3.30
2022-09-12T02:29:22.862Z,3.67
2022-09-12T02:31:58.956Z,3.78
2022-09-12T02:34:40.234Z,3.60
2022-09-12T02:37:17.671Z,4.22
2022-09-12T02:39:45.441Z,3.85
2022-09-12T02:42:12.590Z,3.70
2022-09-12T02:44:39.392Z,3.92
2022-09-12T02:47:10.046Z,5.87
2022-09-12T02:49:36.929Z,3.92
2022-09-12T02:52:03.928Z,5.07
2022-09-12T02:54:30.824Z,4.22
2022-09-12T02:56:57.420Z,4.20
2022-09-12T02:59:24.889Z,4.43
2022-09-12T03:02:15.790Z,4.60
2022-09-12T03:05:19.926Z,4.13
2022-09-12T03:07:59.371Z,4.22
2022-09-12T03:10:41.723Z,4.45
2022-09-12T03:13:31.648Z,4.50
2022-09-12T03:16:19.818Z,5.32
2022-09-12T03:19:06.767Z,5.22
2022-09-12T03:21:40.706Z,5.72
2022-09-12T03:24:16.444Z,4.75
2022-09-12T03:27:12.634Z,5.60
2022-09-12T03:29:40.474Z,4.82
2022-09-12T03:32:07.532Z,5.07
2022-09-12T03:34:34.109Z,6.75
2022-09-12T03:37:00.692Z,5.95
2022-09-12T03:39:27.933Z,5.23
2022-09-12T03:41:55.606Z,5.53
2022-09-12T03:44:22.422Z,5.50
2022-09-12T03:46:49.157Z,4.82
2022-09-12T03:49:16.245Z,4.53
2022-09-12T03:51:43.297Z,4.43
2022-09-12T03:54:10.635Z,6.18
2022-09-12T03:56:42.717Z,4.63
2022-09-12T03:59:09.371Z,4.65
2022-09-12T04:01:35.985Z,6.45
2022-09-12T04:04:02.835Z,5.90
2022-09-12T04:06:31.217Z,4.72
2022-09-12T04:08:58.566Z,4.68
2022-09-12T04:11:25.151Z,7.18
2022-09-12T04:13:51.769Z,5.43
2022-09-12T04:16:18.937Z,5.13
2022-09-12T04:18:46.397Z,4.93
2022-09-12T04:21:17.980Z,4.70
2022-09-12T04:23:44.706Z,4.97
2022-09-12T04:26:11.760Z,4.65
2022-09-12T04:28:38.628Z,4.87
2022-09-12T04:31:17.698Z,5.90
2022-09-12T04:33:45.476Z,5.70
2022-09-12T04:36:16.781Z,4.70
2022-09-12T04:38:45.204Z,4.43
2022-09-12T04:41:20.490Z,4.90
2022-09-12T04:43:48.320Z,4.80
2022-09-12T04:46:16.942Z,5.90
2022-09-12T04:48:44.239Z,5.47
2022-09-12T04:51:15.167Z,6.20
2022-09-12T04:53:42.332Z,4.60
2022-09-12T04:56:11.517Z,5.35
2022-09-12T04:58:38.461Z,5.00
2022-09-12T05:01:11.282Z,5.00
2022-09-12T05:03:39.619Z,5.22
2022-09-12T05:06:12.254Z,5.03
2022-09-12T05:08:38.861Z,5.55
2022-09-12T05:11:07.737Z,5.30
2022-09-12T05:13:35.004Z,4.90
2022-09-12T05:16:03.602Z,4.68
2022-09-12T05:18:32.786Z,6.50
2022-09-12T05:21:00.667Z,5.32
2022-09-12T05:23:27.796Z,6.15
2022-09-12T05:25:56.046Z,5.82
2022-09-12T05:28:23.054Z,4.90
2022-09-12T05:31:03.659Z,6.63
2022-09-12T05:33:31.277Z,5.85
2022-09-12T05:35:57.933Z,5.50
2022-09-12T05:38:25.187Z,5.47
2022-09-12T05:40:52.383Z,6.18
2022-09-12T05:43:20.410Z,6.07
2022-09-12T05:45:47.022Z,6.15
2022-09-12T05:48:13.704Z,5.57
2022-09-12T05:50:40.389Z,5.35
2022-09-12T05:53:08.564Z,7.60
2022-09-12T05:55:35.187Z,4.70
2022-09-12T05:58:01.930Z,5.20
2022-09-12T06:00:33.313Z,6.32
2022-09-12T06:03:01.500Z,4.90
2022-09-12T06:05:28.097Z,4.50
2022-09-12T06:07:54.684Z,5.37
2022-09-12T06:10:23.076Z,4.10
2022-09-12T06:12:49.768Z,5.40
2022-09-12T06:15:16.744Z,4.72
2022-09-12T06:17:43.358Z,4.63
2022-09-12T06:20:10.126Z,4.77
2022-09-12T06:22:36.680Z,5.28
2022-09-12T06:25:03.330Z,5.63
2022-09-12T06:27:29.914Z,5.90
2022-09-12T06:29:56.791Z,6.13
2022-09-12T06:32:23.432Z,5.30
2022-09-12T06:34:50.883Z,4.82
2022-09-12T06:37:17.450Z,6.25
2022-09-12T06:39:44.092Z,5.68
2022-09-12T06:42:10.753Z,6.07
2022-09-12T06:44:37.413Z,4.73
2022-09-12T06:47:04.128Z,6.85
2022-09-12T06:49:31.638Z,5.68
2022-09-12T06:51:58.229Z,5.22
2022-09-12T06:54:26.449Z,6.03
2022-09-12T06:56:53.034Z,4.70
2022-09-12T06:59:20.050Z,4.97
2022-09-12T07:01:46.676Z,5.30
2022-09-12T07:04:13.277Z,5.18
2022-09-12T07:06:41.607Z,6.05
2022-09-12T07:09:11.720Z,6.10
2022-09-12T07:11:40.088Z,6.07
2022-09-12T07:14:08.209Z,6.30
2022-09-12T07:16:36.120Z,7.55
2022-09-12T07:19:04.491Z,5.30
2022-09-12T07:21:31.127Z,6.50
2022-09-12T07:23:58.461Z,7.15
2022-09-12T07:26:28.054Z,5.63
2022-09-12T07:29:03.929Z,6.57
2022-09-12T07:31:39.825Z,5.57
2022-09-12T07:34:06.869Z,6.53
2022-09-12T07:36:34.305Z,6.18
2022-09-12T07:39:01.302Z,7.88
2022-09-12T07:41:29.974Z,6.68
2022-09-12T07:44:01.054Z,6.72
2022-09-12T07:46:29.596Z,6.27
2022-09-12T07:48:57.635Z,6.03
2022-09-12T07:51:25.744Z,5.22
2022-09-12T07:53:52.591Z,8.88
2022-09-12T07:56:20.011Z,5.60
2022-09-12T07:58:46.973Z,4.93
2022-09-12T08:01:18.985Z,6.07
2022-09-12T08:03:48.176Z,5.53
2022-09-12T08:06:17.039Z,4.85
2022-09-12T08:08:43.692Z,5.65
2022-09-12T08:11:12.896Z,5.80
2022-09-12T08:13:40.636Z,4.30
2022-09-12T08:16:12.406Z,4.25
2022-09-12T08:18:39.353Z,5.10
2022-09-12T08:21:08.130Z,4.25
2022-09-12T08:23:34.775Z,5.40
2022-09-12T08:26:06.111Z,5.82
2022-09-12T08:28:34.742Z,5.20
2022-09-12T08:31:08.909Z,4.53
2022-09-12T08:33:35.951Z,6.22
2022-09-12T08:36:06.201Z,4.70
2022-09-12T08:38:34.318Z,4.35
2022-09-12T08:41:10.174Z,4.65
2022-09-12T08:43:45.816Z,4.82
2022-09-12T08:46:19.451Z,4.10
2022-09-12T08:48:46.727Z,4.23
2022-09-12T08:51:16.038Z,4.70
2022-09-12T08:53:43.441Z,5.63
2022-09-12T08:56:11.832Z,4.57
2022-09-12T08:58:43.397Z,4.72
2022-09-12T09:01:33.189Z,6.17
2022-09-12T09:04:28.908Z,4.55
2022-09-12T09:07:07.688Z,4.32
2022-09-12T09:09:52.476Z,4.78
2022-09-12T09:12:45.308Z,3.55
2022-09-12T09:15:14.758Z,3.63
2022-09-12T09:17:50.077Z,4.95
2022-09-12T09:20:24.111Z,3.40
2022-09-12T09:22:57.884Z,3.83
2022-09-12T09:25:29.721Z,3.17
2022-09-12T09:28:05.172Z,4.27
2022-09-12T09:30:31.928Z,3.75
2022-09-12T09:33:00.960Z,3.65
2022-09-12T09:35:48.880Z,3.10
2022-09-12T09:38:25.687Z,3.80
2022-09-12T09:40:52.214Z,3.47
2022-09-12T09:43:23.862Z,3.38
2022-09-12T09:45:52.071Z,4.10
2022-09-12T09:48:21.486Z,5.30
2022-09-12T09:50:49.456Z,4.50
2022-09-12T09:53:42.388Z,3.60
2022-09-12T09:56:23.172Z,3.47
2022-09-12T09:58:50.097Z,3.65
2022-09-12T10:01:18.069Z,3.15
2022-09-12T10:03:52.970Z,3.58
2022-09-12T10:06:19.746Z,3.23
2022-09-12T10:08:46.681Z,3.05
2022-09-12T10:11:16.352Z,4.57
2022-09-12T10:13:56.313Z,3.47
2022-09-12T10:16:34.592Z,3.53
2022-09-12T10:19:03.730Z,3.10
2022-09-12T10:21:51.168Z,3.25
2022-09-12T10:24:27.834Z,3.05
2022-09-12T10:27:06.240Z,2.92
2022-09-12T10:29:35.310Z,3.88
2022-09-12T10:32:05.162Z,3.33
2022-09-12T10:34:42.165Z,3.03
2022-09-12T10:37:23.654Z,4.07
2022-09-12T10:39:53.743Z,2.78
2022-09-12T10:42:56.733Z,3.08
2022-09-12T10:45:31.983Z,3.33
2022-09-12T10:48:05.521Z,3.80
2022-09-12T10:50:43.474Z,3.60
2022-09-12T10:53:17.058Z,3.85
2022-09-12T10:56:00.677Z,2.80
2022-09-12T10:58:51.080Z,3.13
2022-09-12T11:01:41.538Z,3.40
2022-09-12T11:04:08.137Z,3.22
2022-09-12T11:06:53.989Z,3.15
2022-09-12T11:09:29.760Z,3.38
2022-09-12T11:12:04.796Z,2.77
2022-09-12T11:15:03.661Z,3.00
2022-09-12T11:17:57.695Z,4.13
2022-09-12T11:20:35.850Z,3.42
2022-09-12T11:23:39.993Z,3.10
2022-09-12T11:26:36.115Z,4.07
2022-09-12T11:29:21.189Z,2.60
2022-09-12T11:32:10.889Z,3.33
2022-09-12T11:34:47.509Z,3.72
2022-09-12T11:37:48.306Z,3.15
2022-09-12T11:40:32.308Z,2.90
2022-09-12T11:43:29.833Z,2.67
2022-09-12T11:46:00.174Z,3.08
2022-09-12T11:48:33.622Z,3.10
2022-09-12T11:51:00.354Z,3.40
2022-09-12T11:53:31.704Z,2.70
2022-09-12T11:56:18.614Z,3.25
2022-09-12T11:58:51.402Z,2.72
2022-09-12T12:01:21.964Z,3.40
2022-09-12T12:03:49.038Z,3.80
2022-09-12T12:06:21.991Z,2.53
2022-09-12T12:08:50.510Z,3.30
2022-09-12T12:11:36.855Z,2.95
2022-09-12T12:14:22.053Z,3.03
2022-09-12T12:16:49.629Z,3.05
2022-09-12T12:19:16.170Z,4.00
2022-09-12T12:21:47.690Z,3.45
2022-09-12T12:24:25.906Z,3.50
2022-09-12T12:27:03.788Z,2.70
2022-09-12T12:29:43.589Z,2.60
2022-09-12T12:32:10.522Z,2.90
2022-09-12T12:34:42.373Z,3.20
2022-09-12T12:37:21.195Z,3.53
2022-09-12T12:39:51.093Z,2.97
2022-09-12T12:42:35.610Z,2.70
2022-09-12T12:45:25.296Z,4.50
2022-09-12T12:47:54.874Z,3.20
2022-09-12T12:50:26.636Z,3.05
2022-09-12T12:53:02.951Z,2.92
2022-09-12T12:55:38.741Z,3.08
2022-09-12T12:58:06.551Z,3.53
2022-09-12T13:00:39.915Z,3.47
2022-09-12T13:03:06.705Z,3.88
2022-09-12T13:05:47.401Z,3.10
2022-09-12T13:08:16.900Z,5.18
2022-09-12T13:11:00.451Z,2.93
2022-09-12T13:13:37.202Z,3.33
2022-09-12T13:16:03.952Z,2.85
2022-09-12T13:18:44.697Z,3.35
2022-09-12T13:21:17.009Z,3.70
2022-09-12T13:23:44.250Z,2.80
2022-09-12T13:26:13.453Z,2.70
2022-09-12T13:28:40.089Z,2.70
2022-09-12T13:31:25.007Z,2.70
2022-09-12T13:33:54.820Z,3.13
2022-09-12T13:36:36.910Z,2.70
2022-09-12T13:39:28.535Z,2.70
2022-09-12T13:42:26.216Z,2.72
2022-09-12T13:45:06.580Z,3.00
2022-09-12T13:47:36.822Z,2.60
2022-09-12T13:50:05.921Z,4.53
2022-09-12T13:52:34.302Z,3.72
2022-09-12T13:55:02.186Z,2.90
2022-09-12T13:57:34.088Z,3.33
2022-09-12T14:00:07.984Z,2.88
2022-09-12T14:02:36.297Z,3.37
2022-09-12T14:05:29.569Z,2.85
2022-09-12T14:08:04.617Z,2.70
2022-09-12T14:10:39.383Z,3.20
2022-09-12T14:13:24.217Z,3.28
2022-09-12T14:15:53.334Z,3.27
2022-09-12T14:18:36.349Z,4.13
2022-09-12T14:21:30.335Z,3.92
2022-09-12T14:23:57.435Z,2.67
2022-09-12T14:26:24.384Z,2.60
2022-09-12T14:28:51.066Z,3.20
2022-09-12T14:31:22.388Z,3.08
2022-09-12T14:33:54.487Z,3.15
2022-09-12T14:36:30.529Z,3.00
2022-09-12T14:39:01.046Z,2.90
2022-09-12T14:41:32.503Z,2.83
2022-09-12T14:44:01.332Z,4.05
2022-09-12T14:46:34.588Z,3.55
2022-09-12T14:49:07.087Z,2.97
2022-09-12T14:51:36.500Z,3.75
2022-09-12T14:54:03.138Z,2.90
2022-09-12T14:56:54.269Z,2.90
2022-09-12T14:59:28.679Z,3.70
2022-09-12T15:02:13.747Z,2.90
2022-09-12T15:04:40.959Z,2.55
2022-09-12T15:07:36.031Z,2.77
2022-09-12T15:10:27.619Z,2.83
2022-09-12T15:13:06.109Z,2.60
2022-09-12T15:15:32.907Z,2.60
2022-09-12T15:18:02.363Z,2.80
2022-09-12T15:20:43.283Z,3.00
2022-09-12T15:23:18.479Z,2.70
2022-09-12T15:25:45.318Z,3.20
2022-09-12T15:28:20.890Z,3.28
2022-09-12T15:30:50.504Z,2.78
2022-09-12T15:33:22.843Z,2.50
2022-09-12T15:35:50.138Z,2.70
2022-09-12T15:38:16.761Z,2.88
2022-09-12T15:40:43.344Z,6.07
2022-09-12T15:43:13.243Z,2.90
2022-09-12T15:45:42.634Z,3.07
2022-09-12T15:48:09.725Z,3.55
2022-09-12T15:50:36.635Z,3.35
2022-09-12T15:53:03.326Z,3.38
2022-09-12T15:55:32.240Z,3.13
2022-09-12T15:58:03.553Z,2.67
2022-09-12T16:00:32.974Z,2.65
2022-09-12T16:02:59.621Z,2.70
2022-09-12T16:05:26.689Z,2.75
2022-09-12T16:07:54.674Z,2.92
2022-09-12T16:10:27.947Z,2.90
2022-09-12T16:12:54.738Z,2.60
2022-09-12T16:15:23.629Z,2.80
2022-09-12T16:17:50.795Z,2.58
2022-09-12T16:20:18.863Z,3.05
2022-09-12T16:22:45.540Z,2.70
2022-09-12T16:25:12.281Z,3.85
2022-09-12T16:27:39.059Z,2.90
2022-09-12T16:30:07.313Z,2.70
2022-09-12T16:32:34.051Z,3.10
2022-09-12T16:35:00.705Z,3.27
2022-09-12T16:37:27.442Z,3.30
2022-09-12T16:39:54.106Z,3.47
2022-09-12T16:42:20.757Z,2.63
2022-09-12T16:44:47.330Z,3.33
2022-09-12T16:47:14.590Z,3.43
2022-09-12T16:49:41.180Z,2.80
2022-09-12T16:52:08.189Z,3.35
2022-09-12T16:54:34.832Z,2.78
2022-09-12T16:57:01.526Z,3.08
2022-09-12T16:59:28.130Z,2.80
2022-09-12T17:01:54.773Z,3.50
2022-09-12T17:04:23.651Z,2.60
2022-09-12T17:06:50.540Z,3.08
2022-09-12T17:09:18.710Z,2.70
2022-09-12T17:11:50.354Z,3.53
2022-09-12T17:14:17.228Z,2.72
2022-09-12T17:16:50.764Z,3.00
2022-09-12T17:19:29.946Z,3.25
2022-09-12T17:21:57.384Z,3.33
2022-09-12T17:24:24.100Z,3.13
2022-09-12T17:26:51.389Z,3.40
2022-09-12T17:29:18.236Z,5.22
2022-09-12T17:31:45.637Z,3.92
2022-09-12T17:34:16.321Z,3.35
2022-09-12T17:36:48.342Z,3.07
2022-09-12T17:39:15.293Z,2.90
2022-09-12T17:41:42.730Z,3.30
2022-09-12T17:44:11.200Z,2.92
2022-09-12T17:46:39.209Z,3.47
2022-09-12T17:49:08.678Z,4.00
2022-09-12T17:51:35.631Z,3.65
2022-09-12T17:54:06.675Z,4.85
2022-09-12T17:56:34.751Z,3.00
2022-09-12T17:59:02.032Z,3.17
2022-09-12T18:01:48.048Z,3.30
2022-09-12T18:04:14.944Z,2.90
2022-09-12T18:06:47.797Z,2.90
2022-09-12T18:09:17.732Z,3.13
2022-09-12T18:11:44.570Z,3.03
2022-09-12T18:14:14.225Z,2.97
2022-09-12T18:16:41.424Z,3.40
2022-09-12T18:19:08.188Z,3.08
2022-09-12T18:21:34.847Z,3.00
2022-09-12T18:24:02.710Z,3.17
2022-09-12T18:26:30.680Z,3.07
2022-09-12T18:28:57.857Z,3.60
2022-09-12T18:31:27.481Z,3.67
2022-09-12T18:33:54.257Z,3.72
2022-09-12T18:36:21.661Z,3.00
2022-09-12T18:38:48.917Z,3.20
2022-09-12T18:41:17.961Z,3.00
2022-09-12T18:43:45.003Z,3.17
2022-09-12T18:46:14.064Z,3.78
2022-09-12T18:48:40.917Z,3.60
2022-09-12T18:51:11.297Z,3.80
2022-09-12T18:53:38.673Z,2.90
2022-09-12T18:56:10.527Z,2.90
2022-09-12T18:58:38.697Z,2.90
2022-09-12T19:01:15.981Z,3.45
2022-09-12T19:03:43.203Z,4.03
2022-09-12T19:06:17.515Z,6.10
2022-09-12T19:08:45.224Z,3.40
2022-09-12T19:11:12.288Z,3.55
2022-09-12T19:13:42.896Z,3.40
2022-09-12T19:16:11.992Z,3.40
2022-09-12T19:18:39.717Z,3.45
2022-09-12T19:21:08.642Z,3.65
2022-09-12T19:23:36.004Z,4.28
2022-09-12T19:26:07.611Z,3.08
2022-09-12T19:28:34.857Z,3.83
2022-09-12T19:31:07.553Z,3.00
2022-09-12T19:33:34.808Z,3.95
2022-09-12T19:36:04.309Z,3.10
2022-09-12T19:38:31.379Z,3.90
2022-09-12T19:40:59.425Z,3.27
2022-09-12T19:43:26.533Z,3.97
2022-09-12T19:45:53.291Z,3.83
2022-09-12T19:48:20.185Z,2.90
2022-09-12T19:50:47.129Z,3.00
2022-09-12T19:53:13.763Z,10.50
2022-09-12T19:55:40.341Z,3.35
2022-09-12T19:58:07.320Z,5.07
2022-09-12T20:00:35.025Z,3.50
2022-09-12T20:03:02.176Z,2.90
2022-09-12T20:05:28.762Z,4.00
2022-09-12T20:07:55.374Z,3.50
2022-09-12T20:10:21.935Z,3.03
2022-09-12T20:12:48.510Z,3.30
2022-09-12T20:15:15.401Z,4.68
2022-09-12T20:17:42.386Z,3.37
2022-09-12T20:20:10.326Z,2.92
2022-09-12T20:22:39.992Z,3.13
2022-09-12T20:25:07.295Z,3.50
2022-09-12T20:27:33.985Z,2.78
2022-09-12T20:30:00.664Z,2.73
2022-09-12T20:32:28.912Z,4.13
2022-09-12T20:34:56.436Z,2.80
2022-09-12T20:37:23.666Z,2.92
2022-09-12T20:39:51.069Z,2.80
2022-09-12T20:42:17.871Z,3.40
2022-09-12T20:44:44.486Z,3.50
2022-09-12T20:47:11.090Z,2.88
2022-09-12T20:49:37.675Z,3.05
2022-09-12T20:52:04.667Z,3.85
2022-09-12T20:54:31.232Z,2.80
2022-09-12T20:56:57.804Z,3.30
2022-09-12T20:59:24.385Z,2.60
2022-09-12T21:01:51.158Z,2.70
2022-09-12T21:04:18.496Z,2.60
2022-09-12T21:06:45.062Z,3.93
2022-09-12T21:09:11.653Z,3.67
2022-09-12T21:11:38.261Z,2.60
2022-09-12T21:14:05.015Z,3.45
2022-09-12T21:16:31.909Z,2.88
2022-09-12T21:18:59.569Z,3.43
2022-09-12T21:21:26.675Z,2.88
2022-09-12T21:23:55.414Z,3.38
2022-09-12T21:26:22.005Z,2.92
2022-09-12T21:28:48.865Z,2.67
2022-09-12T21:31:15.513Z,3.00
2022-09-12T21:33:42.204Z,2.63
2022-09-12T21:36:09.688Z,2.80
2022-09-12T21:38:36.384Z,2.92
2022-09-12T21:41:11.239Z,2.60
2022-09-12T21:43:38.290Z,2.77
2022-09-12T21:46:05.826Z,2.92
2022-09-12T21:48:32.964Z,3.10
2022-09-12T21:50:59.617Z,3.55
2022-09-12T21:53:26.660Z,2.80
2022-09-12T21:55:53.450Z,2.90
2022-09-12T21:58:20.051Z,3.47
2022-09-12T22:00:48.434Z,3.45
2022-09-12T22:03:15.430Z,4.28
2022-09-12T22:05:43.138Z,3.30
2022-09-12T22:08:11.005Z,3.53
2022-09-12T22:10:38.604Z,2.97
2022-09-12T22:13:05.700Z,3.83
2022-09-12T22:15:41.061Z,3.40
2022-09-12T22:18:08.092Z,3.72
2022-09-12T22:20:34.638Z,3.20
2022-09-12T22:23:24.392Z,3.35
2022-09-12T22:25:54.356Z,4.18
2022-09-12T22:28:21.344Z,3.25
2022-09-12T22:30:48.668Z,3.83
2022-09-12T22:33:15.309Z,4.00
2022-09-12T22:35:42.477Z,3.67
2022-09-12T22:38:09.213Z,4.30
2022-09-12T22:40:35.790Z,3.10
2022-09-12T22:43:02.393Z,3.10
2022-09-12T22:45:29.038Z,4.27
2022-09-12T22:47:59.156Z,5.45
2022-09-12T22:50:27.651Z,3.67
2022-09-12T22:52:54.250Z,3.67
2022-09-12T22:55:20.865Z,3.72
2022-09-12T22:57:47.463Z,3.40
2022-09-12T23:00:14.887Z,3.42
2022-09-12T23:02:41.552Z,3.80
2022-09-12T23:05:08.439Z,4.18
2022-09-12T23:07:35.698Z,4.22
2022-09-12T23:10:02.385Z,3.97
2022-09-12T23:12:29.020Z,4.40
2022-09-12T23:14:55.590Z,4.22
2022-09-12T23:17:22.165Z,3.80
2022-09-12T23:19:48.771Z,3.88
2022-09-12T23:22:15.351Z,3.80
2022-09-12T23:24:41.936Z,4.63
2022-09-12T23:27:08.941Z,3.85
2022-09-12T23:29:35.658Z,5.13
2022-09-12T23:32:03.989Z,4.20
2022-09-12T23:34:30.980Z,3.60
2022-09-12T23:36:57.621Z,3.25
2022-09-12T23:39:24.259Z,3.80
2022-09-12T23:41:50.842Z,4.88
2022-09-12T23:44:17.610Z,4.15
2022-09-12T23:46:44.207Z,4.10
2022-09-12T23:49:10.786Z,3.60
2022-09-12T23:51:37.378Z,4.30
2022-09-12T23:54:04.407Z,3.50
2022-09-12T23:56:31.028Z,4.70
2022-09-12T23:58:57.616Z,3.83
